createdAt,value
2023-03-06T00:00:10.966Z,8.40
2023-03-06T00:02:38.147Z,8.63
2023-03-06T00:05:05.513Z,8.65
2023-03-06T00:07:32.709Z,9.98
2023-03-06T00:09:59.916Z,7.65
2023-03-06T00:12:27.622Z,12.45
2023-03-06T00:14:54.808Z,8.23
2023-03-06T00:17:22.026Z,9.13
2023-03-06T00:19:49.198Z,14.85
2023-03-06T00:22:16.940Z,7.95
2023-03-06T00:24:45.307Z,7.07
2023-03-06T00:27:12.500Z,8.55
2023-03-06T00:29:39.661Z,8.55
2023-03-06T00:32:07.063Z,8.32
2023-03-06T00:34:34.270Z,9.20
2023-03-06T00:37:01.469Z,7.88
2023-03-06T00:39:28.684Z,8.25
2023-03-06T00:41:55.882Z,7.78
2023-03-06T00:44:23.039Z,10.60
2023-03-06T00:46:50.219Z,8.07
2023-03-06T00:49:18.534Z,8.00
2023-03-06T00:51:45.765Z,7.97
2023-03-06T00:54:13.055Z,7.90
2023-03-06T00:56:40.180Z,7.93
2023-03-06T00:59:08.838Z,6.80
2023-03-06T01:01:36.046Z,7.40
2023-03-06T01:04:03.274Z,7.47
2023-03-06T01:06:30.500Z,7.20
2023-03-06T01:08:57.912Z,7.43
2023-03-06T01:11:25.181Z,7.47
2023-03-06T01:13:52.342Z,6.95
2023-03-06T01:16:21.243Z,6.65
2023-03-06T01:18:48.812Z,7.57
2023-03-06T01:21:16.014Z,7.53
2023-03-06T01:23:43.448Z,6.63
2023-03-06T01:26:10.739Z,6.90
2023-03-06T01:28:39.143Z,7.80
2023-03-06T01:31:06.704Z,6.60
2023-03-06T01:33:34.216Z,8.18
2023-03-06T01:36:03.902Z,6.60
2023-03-06T01:38:31.137Z,6.05
2023-03-06T01:40:58.487Z,7.07
2023-03-06T01:43:26.188Z,6.15
2023-03-06T01:45:53.409Z,6.00
2023-03-06T01:48:22.248Z,10.60
2023-03-06T01:50:50.525Z,5.70
2023-03-06T01:53:17.871Z,6.85
2023-03-06T01:55:45.248Z,6.18
2023-03-06T01:58:14.403Z,6.93
2023-03-06T02:00:41.564Z,6.45
2023-03-06T02:03:10.983Z,6.60
2023-03-06T02:05:38.658Z,9.27
2023-03-06T02:08:06.486Z,6.57
2023-03-06T02:10:33.859Z,6.65
2023-03-06T02:13:01.236Z,6.88
2023-03-06T02:15:29.261Z,6.28
2023-03-06T02:17:56.606Z,7.43
2023-03-06T02:20:26.590Z,6.55
2023-03-06T02:22:53.719Z,5.93
2023-03-06T02:25:29.881Z,6.05
2023-03-06T02:27:57.077Z,6.03
2023-03-06T02:30:25.998Z,6.47
2023-03-06T02:32:53.314Z,5.93
2023-03-06T02:35:23.584Z,5.60
2023-03-06T02:37:50.851Z,7.22
2023-03-06T02:40:18.716Z,6.13
2023-03-06T02:42:49.881Z,6.25
2023-03-06T02:45:19.880Z,5.93
2023-03-06T02:47:47.016Z,6.15
2023-03-06T02:50:14.240Z,5.93
2023-03-06T02:52:41.470Z,5.80
2023-03-06T02:55:09.097Z,6.40
2023-03-06T02:57:36.334Z,6.10
2023-03-06T03:00:03.815Z,5.80
2023-03-06T03:02:30.962Z,5.68
2023-03-06T03:04:58.139Z,7.40
2023-03-06T03:07:25.308Z,6.32
2023-03-06T03:09:52.465Z,5.15
2023-03-06T03:12:19.691Z,5.63
2023-03-06T03:14:46.866Z,5.40
2023-03-06T03:17:14.002Z,5.72
2023-03-06T03:19:41.305Z,5.45
2023-03-06T03:22:08.480Z,5.57
2023-03-06T03:24:35.773Z,5.78
2023-03-06T03:27:03.076Z,6.20
2023-03-06T03:29:30.268Z,6.95
2023-03-06T03:31:57.440Z,5.50
2023-03-06T03:34:24.615Z,5.82
2023-03-06T03:36:51.829Z,5.30
2023-03-06T03:39:19.832Z,5.35
2023-03-06T03:41:47.256Z,5.75
2023-03-06T03:44:14.416Z,5.60
2023-03-06T03:46:41.602Z,5.28
2023-03-06T03:49:08.804Z,5.68
2023-03-06T03:51:36.018Z,5.50
2023-03-06T03:54:03.323Z,5.68
2023-03-06T03:56:30.570Z,5.90
2023-03-06T03:58:57.805Z,5.93
2023-03-06T04:01:25.013Z,5.38
2023-03-06T04:03:52.192Z,5.53
2023-03-06T04:06:19.472Z,5.38
2023-03-06T04:08:46.673Z,7.15
2023-03-06T04:11:13.854Z,4.95
2023-03-06T04:13:41.030Z,5.70
2023-03-06T04:16:08.449Z,5.40
2023-03-06T04:18:35.740Z,5.57
2023-03-06T04:21:02.958Z,5.82
2023-03-06T04:23:30.113Z,5.20
2023-03-06T04:25:57.302Z,6.45
2023-03-06T04:28:24.913Z,5.00
2023-03-06T04:30:52.068Z,5.40
2023-03-06T04:33:19.257Z,6.13
2023-03-06T04:35:46.486Z,5.72
2023-03-06T04:38:13.998Z,5.93
2023-03-06T04:40:42.583Z,6.05
2023-03-06T04:43:11.043Z,5.30
2023-03-06T04:45:38.279Z,5.25
2023-03-06T04:48:05.571Z,5.05
2023-03-06T04:50:32.775Z,6.80
2023-03-06T04:53:04.720Z,5.30
2023-03-06T04:55:32.010Z,5.72
2023-03-06T04:57:59.261Z,5.38
2023-03-06T05:00:33.492Z,5.32
2023-03-06T05:03:01.677Z,5.38
2023-03-06T05:05:29.420Z,5.38
2023-03-06T05:07:56.851Z,5.70
2023-03-06T05:10:24.598Z,5.38
2023-03-06T05:12:51.980Z,5.57
2023-03-06T05:15:19.227Z,5.60
2023-03-06T05:17:47.483Z,5.65
2023-03-06T05:20:15.276Z,5.28
2023-03-06T05:22:42.478Z,5.43
2023-03-06T05:25:10.702Z,6.20
2023-03-06T05:27:38.265Z,4.95
2023-03-06T05:30:05.716Z,5.70
2023-03-06T05:32:35.484Z,5.60
2023-03-06T05:35:03.084Z,4.88
2023-03-06T05:37:30.589Z,5.65
2023-03-06T05:39:57.980Z,4.90
2023-03-06T05:42:26.829Z,7.57
2023-03-06T05:44:55.437Z,6.15
2023-03-06T05:47:22.610Z,6.63
2023-03-06T05:49:49.882Z,7.93
2023-03-06T05:52:17.644Z,5.82
2023-03-06T05:54:45.201Z,5.60
2023-03-06T05:57:13.642Z,8.68
2023-03-06T05:59:40.940Z,5.78
2023-03-06T06:02:08.130Z,6.30
2023-03-06T06:04:35.297Z,6.13
2023-03-06T06:07:02.482Z,6.07
2023-03-06T06:09:29.717Z,5.55
2023-03-06T06:12:01.468Z,7.50
2023-03-06T06:14:29.482Z,8.55
2023-03-06T06:16:56.713Z,6.03
2023-03-06T06:19:23.923Z,5.43
2023-03-06T06:21:52.384Z,8.50
2023-03-06T06:24:21.233Z,13.68
2023-03-06T06:26:50.334Z,7.53
2023-03-06T06:29:17.921Z,9.27
2023-03-06T06:31:45.302Z,6.88
2023-03-06T06:34:12.838Z,5.28
2023-03-06T06:36:40.071Z,7.80
2023-03-06T06:39:08.232Z,6.75
2023-03-06T06:41:53.594Z,9.88
2023-03-06T06:44:22.942Z,5.95
2023-03-06T06:47:21.448Z,7.40
2023-03-06T06:49:38.063Z,8.95
2023-03-06T06:52:05.441Z,8.15
2023-03-06T06:54:36.308Z,5.55
2023-03-06T06:57:03.443Z,13.52
2023-03-06T06:59:30.590Z,11.50
2023-03-06T07:01:57.775Z,10.27
2023-03-06T07:04:25.021Z,11.35
2023-03-06T07:06:52.220Z,8.68
2023-03-06T07:09:20.082Z,9.13
2023-03-06T07:11:47.277Z,10.48
2023-03-06T07:14:14.621Z,8.60
2023-03-06T07:16:42.040Z,7.93
2023-03-06T07:19:09.422Z,11.20
2023-03-06T07:21:36.634Z,8.77
2023-03-06T07:24:04.691Z,11.60
2023-03-06T07:26:34.488Z,9.18
2023-03-06T07:29:03.558Z,13.02
2023-03-06T07:31:31.201Z,9.15
2023-03-06T07:33:58.550Z,9.88
2023-03-06T07:36:25.870Z,8.77
2023-03-06T07:38:53.020Z,9.48
2023-03-06T07:41:22.506Z,11.32
2023-03-06T07:43:50.145Z,10.40
2023-03-06T07:46:17.478Z,9.68
2023-03-06T07:48:44.809Z,12.55
2023-03-06T07:51:16.395Z,9.18
2023-03-06T07:53:43.950Z,12.25
2023-03-06T07:56:11.873Z,10.55
2023-03-06T07:58:39.925Z,10.60
2023-03-06T08:01:08.061Z,8.05
2023-03-06T08:03:35.294Z,11.98
2023-03-06T08:06:06.775Z,12.30
2023-03-06T08:08:34.976Z,9.95
2023-03-06T08:11:02.212Z,9.43
2023-03-06T08:13:29.357Z,10.85
2023-03-06T08:15:56.852Z,10.07
2023-03-06T08:18:24.332Z,11.63
2023-03-06T08:20:51.472Z,10.27
2023-03-06T08:23:18.680Z,10.85
2023-03-06T08:25:45.882Z,7.18
2023-03-06T08:28:13.075Z,10.15
2023-03-06T08:30:40.423Z,8.52
2023-03-06T08:33:07.664Z,10.45
2023-03-06T08:35:34.852Z,8.30
2023-03-06T08:38:02.023Z,10.23
2023-03-06T08:40:30.506Z,8.30
2023-03-06T08:42:57.804Z,8.68
2023-03-06T08:45:25.010Z,10.30
2023-03-06T08:47:52.180Z,10.75
2023-03-06T08:50:19.372Z,9.32
2023-03-06T08:52:46.592Z,9.45
2023-03-06T08:55:15.153Z,8.25
2023-03-06T08:57:42.389Z,8.73
2023-03-06T09:00:10.897Z,8.35
2023-03-06T09:02:38.133Z,10.25
2023-03-06T09:05:09.172Z,8.65
2023-03-06T09:07:36.568Z,9.52
2023-03-06T09:10:03.938Z,9.25
2023-03-06T09:12:37.367Z,7.95
2023-03-06T09:15:15.100Z,10.85
2023-03-06T09:17:42.371Z,10.95
2023-03-06T09:20:10.638Z,12.25
2023-03-06T09:22:38.025Z,11.45
2023-03-06T09:25:06.501Z,13.00
2023-03-06T09:27:33.825Z,9.15
2023-03-06T09:30:01.060Z,10.40
2023-03-06T09:32:28.472Z,10.63
2023-03-06T09:34:55.705Z,9.32
2023-03-06T09:37:23.444Z,10.55
2023-03-06T09:39:50.643Z,9.65
2023-03-06T09:42:22.094Z,12.02
2023-03-06T09:44:56.940Z,10.43
2023-03-06T09:47:24.059Z,10.00
2023-03-06T09:50:04.977Z,9.70
2023-03-06T09:52:43.474Z,9.77
2023-03-06T09:55:13.957Z,10.45
2023-03-06T09:57:43.887Z,9.65
2023-03-06T10:00:20.308Z,9.68
2023-03-06T10:02:50.985Z,11.02
2023-03-06T10:05:23.307Z,17.45
2023-03-06T10:07:50.504Z,15.07
2023-03-06T10:10:22.922Z,22.52
2023-03-06T10:12:54.428Z,20.85
2023-03-06T10:15:33.313Z,17.58
2023-03-06T10:18:00.849Z,20.15
2023-03-06T10:20:29.662Z,20.70
2023-03-06T10:23:15.765Z,19.77
2023-03-06T10:26:02.837Z,19.33
2023-03-06T10:28:37.774Z,18.45
2023-03-06T10:31:14.021Z,17.70
2023-03-06T10:33:44.288Z,19.05
2023-03-06T10:36:13.880Z,18.40
2023-03-06T10:38:41.861Z,22.67
2023-03-06T10:41:18.417Z,17.85
2023-03-06T10:43:46.296Z,20.30
2023-03-06T10:46:15.161Z,19.17
2023-03-06T10:48:42.814Z,18.42
2023-03-06T10:51:23.109Z,20.30
2023-03-06T10:53:50.439Z,21.40
2023-03-06T10:56:31.551Z,20.30
2023-03-06T10:59:07.624Z,17.08
2023-03-06T11:01:35.013Z,18.92
2023-03-06T11:04:16.051Z,18.30
2023-03-06T11:06:43.595Z,18.38
2023-03-06T11:09:19.589Z,20.52
2023-03-06T11:11:46.795Z,18.60
2023-03-06T11:14:23.298Z,21.20
2023-03-06T11:16:55.253Z,19.38
2023-03-06T11:19:27.928Z,18.40
2023-03-06T11:22:05.776Z,18.45
2023-03-06T11:24:41.445Z,18.92
2023-03-06T11:27:24.513Z,19.27
2023-03-06T11:29:54.408Z,20.67
2023-03-06T11:32:23.917Z,20.92
2023-03-06T11:34:58.083Z,19.92
2023-03-06T11:37:43.498Z,27.40
2023-03-06T11:40:32.390Z,21.93
2023-03-06T11:43:25.993Z,21.88
2023-03-06T11:46:05.137Z,19.80
2023-03-06T11:48:37.611Z,19.85
2023-03-06T11:51:19.689Z,18.23
2023-03-06T11:53:49.039Z,21.13
2023-03-06T11:56:19.650Z,20.15
2023-03-06T11:58:52.899Z,24.92
2023-03-06T12:01:23.756Z,19.33
2023-03-06T12:03:50.882Z,20.88
2023-03-06T12:06:47.541Z,20.10
2023-03-06T12:11:54.087Z,20.52
2023-03-06T12:14:21.272Z,17.83
2023-03-06T12:16:58.709Z,17.52
2023-03-06T12:19:33.210Z,20.05
2023-03-06T12:22:10.665Z,17.40
2023-03-06T12:24:56.714Z,25.75
2023-03-06T12:27:59.428Z,18.40
2023-03-06T12:30:35.276Z,16.63
2023-03-06T12:35:29.729Z,18.55
2023-03-06T12:38:12.086Z,17.90
2023-03-06T12:40:39.322Z,17.67
2023-03-06T12:43:06.423Z,22.48
2023-03-06T12:45:34.492Z,20.58
2023-03-06T12:48:02.448Z,18.63
2023-03-06T12:50:31.666Z,21.45
2023-03-06T12:53:01.458Z,19.80
2023-03-06T12:55:40.678Z,19.42
2023-03-06T12:58:30.872Z,18.40
2023-03-06T13:01:03.712Z,18.52
2023-03-06T13:03:31.275Z,17.17
2023-03-06T13:06:02.213Z,20.10
2023-03-06T13:08:52.976Z,19.77
2023-03-06T13:11:27.831Z,18.55
2023-03-06T13:13:55.470Z,20.07
2023-03-06T13:16:29.871Z,19.45
2023-03-06T13:19:04.814Z,20.75
2023-03-06T13:21:50.920Z,17.40
2023-03-06T13:24:25.578Z,22.95
2023-03-06T13:26:57.394Z,16.75
2023-03-06T13:29:36.871Z,25.13
2023-03-06T13:32:04.168Z,21.10
2023-03-06T13:34:34.233Z,16.42
2023-03-06T13:37:20.233Z,20.13
2023-03-06T13:39:59.417Z,16.63
2023-03-06T13:42:26.608Z,18.67
2023-03-06T13:44:55.120Z,14.68
2023-03-06T13:47:30.576Z,19.77
2023-03-06T13:49:58.450Z,20.17
2023-03-06T13:52:25.599Z,20.95
2023-03-06T13:54:59.431Z,15.77
2023-03-06T13:57:45.545Z,16.45
2023-03-06T14:00:19.138Z,19.95
2023-03-06T14:02:46.361Z,18.48
2023-03-06T14:05:15.226Z,22.25
2023-03-06T14:07:43.565Z,17.52
2023-03-06T14:10:24.200Z,19.77
2023-03-06T14:12:51.333Z,14.82
2023-03-06T14:15:21.001Z,20.13
2023-03-06T14:17:54.198Z,21.80
2023-03-06T14:20:22.370Z,17.83
2023-03-06T14:22:49.517Z,16.65
2023-03-06T14:25:16.709Z,15.43
2023-03-06T14:27:44.030Z,14.20
2023-03-06T14:30:16.086Z,20.30
2023-03-06T14:32:43.414Z,17.05
2023-03-06T14:35:21.410Z,17.85
2023-03-06T14:37:50.285Z,16.02
2023-03-06T14:40:20.029Z,17.33
2023-03-06T14:42:47.192Z,13.32
2023-03-06T14:45:15.899Z,14.45
2023-03-06T14:47:43.760Z,15.77
2023-03-06T14:50:24.824Z,16.33
2023-03-06T14:52:56.785Z,15.75
2023-03-06T14:55:25.271Z,16.45
2023-03-06T14:57:55.617Z,15.75
2023-03-06T15:00:23.829Z,14.15
2023-03-06T15:02:51.929Z,15.65
2023-03-06T15:05:23.508Z,13.50
2023-03-06T15:07:51.786Z,14.80
2023-03-06T15:10:26.385Z,18.13
2023-03-06T15:12:53.755Z,14.43
2023-03-06T15:15:25.384Z,17.48
2023-03-06T15:17:52.838Z,13.02
2023-03-06T15:20:38.089Z,13.43
2023-03-06T15:23:14.386Z,14.35
2023-03-06T15:25:41.618Z,15.02
2023-03-06T15:28:27.596Z,14.68
2023-03-06T15:31:21.971Z,13.43
2023-03-06T15:34:01.069Z,11.98
2023-03-06T15:36:29.797Z,12.75
2023-03-06T15:38:58.271Z,12.23
2023-03-06T15:41:36.154Z,12.32
2023-03-06T15:44:04.849Z,14.02
2023-03-06T15:46:32.044Z,12.45
2023-03-06T15:49:03.698Z,13.80
2023-03-06T15:51:33.634Z,17.27
2023-03-06T15:54:11.991Z,14.82
2023-03-06T15:56:40.724Z,14.00
2023-03-06T15:59:11.296Z,11.98
2023-03-06T16:01:38.548Z,17.40
2023-03-06T16:04:05.757Z,17.02
2023-03-06T16:06:32.933Z,14.50
2023-03-06T16:09:00.139Z,18.25
2023-03-06T16:11:32.554Z,18.05
2023-03-06T16:14:02.808Z,13.27
2023-03-06T16:16:29.954Z,14.85
2023-03-06T16:18:57.173Z,13.85
2023-03-06T16:21:24.372Z,13.00
2023-03-06T16:23:51.556Z,14.35
2023-03-06T16:26:30.204Z,14.27
2023-03-06T16:28:57.419Z,15.95
2023-03-06T16:31:24.792Z,13.40
2023-03-06T16:33:51.912Z,16.58
2023-03-06T16:36:23.130Z,11.63
2023-03-06T16:38:51.086Z,12.15
2023-03-06T16:41:19.307Z,16.05
2023-03-06T16:43:49.943Z,12.80
2023-03-06T16:46:18.527Z,12.98
2023-03-06T16:48:46.314Z,12.98
2023-03-06T16:51:15.785Z,14.25
2023-03-06T16:53:43.514Z,13.02
2023-03-06T16:56:12.252Z,12.32
2023-03-06T16:58:39.958Z,11.13
2023-03-06T17:01:08.274Z,17.70
2023-03-06T17:03:36.317Z,13.02
2023-03-06T17:06:04.725Z,12.55
2023-03-06T17:08:31.917Z,11.10
2023-03-06T17:10:59.071Z,15.38
2023-03-06T17:13:26.212Z,17.40
2023-03-06T17:15:59.027Z,13.13
2023-03-06T17:18:27.312Z,13.15
2023-03-06T17:20:54.878Z,14.93
2023-03-06T17:23:25.901Z,14.23
2023-03-06T17:25:53.563Z,10.15
2023-03-06T17:28:20.784Z,15.23
2023-03-06T17:30:47.984Z,11.43
2023-03-06T17:33:15.195Z,10.88
2023-03-06T17:35:42.321Z,11.48
2023-03-06T17:38:09.561Z,13.80
2023-03-06T17:40:37.535Z,14.18
2023-03-06T17:43:04.754Z,10.50
2023-03-06T17:45:33.703Z,13.40
2023-03-06T17:48:00.882Z,12.90
2023-03-06T17:50:28.037Z,9.65
2023-03-06T17:52:55.264Z,13.23
2023-03-06T17:55:22.542Z,14.60
2023-03-06T17:57:52.068Z,17.80
2023-03-06T18:00:20.215Z,12.85
2023-03-06T18:02:47.432Z,12.68
2023-03-06T18:05:14.722Z,11.65
2023-03-06T18:07:41.994Z,9.32
2023-03-06T18:10:09.562Z,11.85
2023-03-06T18:12:36.709Z,11.65
2023-03-06T18:15:04.050Z,9.27
2023-03-06T18:17:31.283Z,9.98
2023-03-06T18:19:58.608Z,10.52
2023-03-06T18:22:25.847Z,15.90
2023-03-06T18:24:52.995Z,9.68
2023-03-06T18:27:21.106Z,8.43
2023-03-06T18:29:48.377Z,12.10
2023-03-06T18:32:15.651Z,9.27
2023-03-06T18:34:42.797Z,10.18
2023-03-06T18:37:09.924Z,9.50
2023-03-06T18:39:37.105Z,8.05
2023-03-06T18:42:04.317Z,9.43
2023-03-06T18:44:31.526Z,8.40
2023-03-06T18:46:58.742Z,10.38
2023-03-06T18:49:25.924Z,8.95
2023-03-06T18:51:53.113Z,7.95
2023-03-06T18:54:20.344Z,8.52
2023-03-06T18:56:47.605Z,9.98
2023-03-06T18:59:18.546Z,7.93
2023-03-06T19:01:47.132Z,9.13
2023-03-06T19:04:14.485Z,8.50
2023-03-06T19:06:41.779Z,7.60
2023-03-06T19:09:10.987Z,7.88
2023-03-06T19:11:38.187Z,7.50
2023-03-06T19:14:05.530Z,7.80
2023-03-06T19:16:32.679Z,7.90
2023-03-06T19:19:00.003Z,7.40
2023-03-06T19:21:28.014Z,10.30
2023-03-06T19:23:56.084Z,10.23
2023-03-06T19:26:23.663Z,7.65
2023-03-06T19:28:52.288Z,8.68
2023-03-06T19:31:20.822Z,8.25
2023-03-06T19:33:48.903Z,10.60
2023-03-06T19:36:16.384Z,8.43
2023-03-06T19:38:43.813Z,7.68
2023-03-06T19:41:13.421Z,7.30
2023-03-06T19:43:41.207Z,8.38
2023-03-06T19:46:12.287Z,7.28
2023-03-06T19:48:39.571Z,7.00
2023-03-06T19:51:07.277Z,10.43
2023-03-06T19:53:38.843Z,9.50
2023-03-06T19:56:10.837Z,6.63
2023-03-06T19:58:38.380Z,6.78
2023-03-06T20:01:10.678Z,9.60
2023-03-06T20:03:37.867Z,8.68
2023-03-06T20:06:09.203Z,7.07
2023-03-06T20:08:37.131Z,9.40
2023-03-06T20:11:04.582Z,8.73
2023-03-06T20:13:32.059Z,6.72
2023-03-06T20:16:02.972Z,6.78
2023-03-06T20:18:30.209Z,6.82
2023-03-06T20:20:58.595Z,6.60
2023-03-06T20:23:25.796Z,6.43
2023-03-06T20:25:53.288Z,13.30
2023-03-06T20:28:20.468Z,10.18
2023-03-06T20:30:47.811Z,6.68
2023-03-06T20:33:15.430Z,11.63
2023-03-06T20:35:43.116Z,7.35
2023-03-06T20:38:10.739Z,9.07
2023-03-06T20:40:42.181Z,8.82
2023-03-06T20:43:09.471Z,8.52
2023-03-06T20:45:36.680Z,9.70
2023-03-06T20:48:03.888Z,11.30
2023-03-06T20:50:31.114Z,12.07
2023-03-06T20:52:58.941Z,9.63
2023-03-06T20:55:26.272Z,11.25
2023-03-06T20:57:53.726Z,10.02
2023-03-06T21:00:21.320Z,8.85
2023-03-06T21:02:48.599Z,13.18
2023-03-06T21:05:15.845Z,8.18
2023-03-06T21:07:43.076Z,12.05
2023-03-06T21:10:10.508Z,15.88
2023-03-06T21:12:37.761Z,8.82
2023-03-06T21:15:05.182Z,10.13
2023-03-06T21:17:32.355Z,8.27
2023-03-06T21:19:59.630Z,7.32
2023-03-06T21:22:26.843Z,10.70
2023-03-06T21:24:54.011Z,8.82
2023-03-06T21:27:21.159Z,8.82
2023-03-06T21:29:48.365Z,10.05
2023-03-06T21:32:15.662Z,14.43
2023-03-06T21:34:42.870Z,13.05
2023-03-06T21:37:10.060Z,11.98
2023-03-06T21:39:38.550Z,11.65
2023-03-06T21:42:05.846Z,9.75
2023-03-06T21:44:33.343Z,10.13
2023-03-06T21:47:00.557Z,9.82
2023-03-06T21:49:29.294Z,13.55
2023-03-06T21:51:56.880Z,10.15
2023-03-06T21:54:24.276Z,10.25
2023-03-06T21:56:51.512Z,10.48
2023-03-06T21:59:18.729Z,10.73
2023-03-06T22:01:47.472Z,11.25
2023-03-06T22:04:14.810Z,10.98
2023-03-06T22:06:42.043Z,17.73
2023-03-06T22:09:09.936Z,15.45
2023-03-06T22:11:37.400Z,16.02
2023-03-06T22:14:05.381Z,13.85
2023-03-06T22:16:33.109Z,13.38
2023-03-06T22:19:00.346Z,10.02
2023-03-06T22:21:27.574Z,11.43
2023-03-06T22:23:57.510Z,13.73
2023-03-06T22:26:25.220Z,10.00
2023-03-06T22:28:52.410Z,12.73
2023-03-06T22:31:21.330Z,9.63
2023-03-06T22:33:51.274Z,10.80
2023-03-06T22:36:18.949Z,10.65
2023-03-06T22:38:46.874Z,12.60
2023-03-06T22:41:15.346Z,13.43
2023-03-06T22:43:42.759Z,9.77
2023-03-06T22:46:13.812Z,14.65
2023-03-06T22:48:41.489Z,10.82
2023-03-06T22:51:10.064Z,12.65
2023-03-06T22:53:37.641Z,11.23
2023-03-06T22:56:05.949Z,10.73
2023-03-06T22:58:37.353Z,18.52
2023-03-06T23:01:06.070Z,10.18
2023-03-06T23:03:33.346Z,11.07
2023-03-06T23:06:00.506Z,11.02
2023-03-06T23:08:27.744Z,12.98
2023-03-06T23:10:54.924Z,10.10
2023-03-06T23:13:22.096Z,11.05
2023-03-06T23:15:49.347Z,10.85
2023-03-06T23:18:16.613Z,9.40
2023-03-06T23:20:44.846Z,8.10
2023-03-06T23:23:12.080Z,10.90
2023-03-06T23:25:39.238Z,8.45
2023-03-06T23:28:07.412Z,8.20
2023-03-06T23:30:34.629Z,12.40
2023-03-06T23:33:01.780Z,10.98
2023-03-06T23:35:28.931Z,11.15
2023-03-06T23:37:56.386Z,9.80
2023-03-06T23:40:23.528Z,11.10
2023-03-06T23:42:51.140Z,10.45
2023-03-06T23:45:18.454Z,9.60
2023-03-06T23:47:45.630Z,11.07
2023-03-06T23:50:14.030Z,13.85
2023-03-06T23:52:41.179Z,14.93
2023-03-06T23:55:09.134Z,14.77
2023-03-06T23:57:36.364Z,13.63
